Time;durP1;ratioP1;P1;durP2;ratioP2;P2;SDS_P1;SDS_P2;PMS_P1;PMS_P2;Temp;Humidity;BMP_temperature;BMP_pressure;BME280_temperature;BME280_humidity;BME280_pressure;Samples;Min_cycle;Max_cycle;Signal;HPM_P1;HPM_P2
2023/03/03 00:01:26;;;;;;;64.15;25.33;;;;;;;;;;5009436;28;20511;-71
2023/03/03 00:03:52;;;;;;;65.93;26.23;;;;;;;;;;5006273;28;20057;-71
2023/03/03 00:06:17;;;;;;;66.10;26.30;;;;;;;;;;5010731;28;20083;-71
2023/03/03 00:08:42;;;;;;;62.75;24.58;;;;;;;;;;5005168;28;20035;-71
2023/03/03 00:11:08;;;;;;;53.97;23.58;;;;;;;;;;5007797;28;20024;-71
2023/03/03 00:13:43;;;;;;;69.05;26.05;;;;;;;;;;5000785;28;20542;-71
2023/03/03 00:16:15;;;;;;;63.67;25.55;;;;;;;;;;5008818;28;20041;-71
2023/03/03 00:18:42;;;;;;;64.15;25.52;;;;;;;;;;5003692;28;20588;-71
2023/03/03 00:21:17;;;;;;;58.75;25.50;;;;;;;;;;5006801;28;20024;-71
2023/03/03 00:23:42;;;;;;;70.47;25.85;;;;;;;;;;5004388;28;20055;-71
2023/03/03 00:26:19;;;;;;;67.15;24.10;;;;;;;;;;5010078;28;20105;-71
2023/03/03 00:28:46;;;;;;;60.72;25.60;;;;;;;;;;5003989;28;20590;-71
2023/03/03 00:31:17;;;;;;;64.90;26.13;;;;;;;;;;5005671;28;20473;-71
2023/03/03 00:33:45;;;;;;;59.08;27.33;;;;;;;;;;5007836;28;20006;-71
2023/03/03 00:36:14;;;;;;;68.85;27.95;;;;;;;;;;5006682;28;20022;-71
2023/03/03 00:38:39;;;;;;;67.72;25.80;;;;;;;;;;5008402;28;20017;-71
2023/03/03 00:41:10;;;;;;;70.20;27.75;;;;;;;;;;5005731;28;20091;-71
2023/03/03 00:43:36;;;;;;;68.85;28.25;;;;;;;;;;5008491;28;20618;-71
2023/03/03 00:46:01;;;;;;;73.00;27.23;;;;;;;;;;5006777;28;20125;-71
2023/03/03 00:48:30;;;;;;;69.97;27.65;;;;;;;;;;5002844;28;20115;-71
2023/03/03 00:50:59;;;;;;;74.37;27.30;;;;;;;;;;5005475;28;20021;-71
2023/03/03 00:53:26;;;;;;;77.47;30.30;;;;;;;;;;5007754;28;20021;-71
2023/03/03 00:55:52;;;;;;;73.32;28.98;;;;;;;;;;5009159;28;20026;-71
2023/03/03 00:58:17;;;;;;;71.85;28.33;;;;;;;;;;5007754;28;20025;-71
2023/03/03 01:00:43;;;;;;;66.60;28.13;;;;;;;;;;5007855;28;20030;-72
2023/03/03 01:03:11;;;;;;;72.38;27.98;;;;;;;;;;5008880;28;20029;-71
2023/03/03 01:05:36;;;;;;;68.55;27.35;;;;;;;;;;5004092;28;20506;-72
2023/03/03 01:08:02;;;;;;;68.95;28.75;;;;;;;;;;5008965;28;20026;-71
2023/03/03 01:10:29;;;;;;;73.70;27.35;;;;;;;;;;5004494;28;20097;-71
2023/03/03 01:12:54;;;;;;;75.05;28.52;;;;;;;;;;5008336;28;20037;-72
2023/03/03 01:15:20;;;;;;;72.47;28.33;;;;;;;;;;5003186;28;20057;-71
2023/03/03 01:17:45;;;;;;;68.97;28.75;;;;;;;;;;5010646;28;20493;-71
2023/03/03 01:20:12;;;;;;;73.03;28.20;;;;;;;;;;5005136;28;20531;-71
2023/03/03 01:22:37;;;;;;;65.65;27.50;;;;;;;;;;5008436;28;20026;-71
2023/03/03 01:25:03;;;;;;;75.20;29.33;;;;;;;;;;5002524;28;20109;-71
2023/03/03 01:27:28;;;;;;;73.63;30.65;;;;;;;;;;5009276;28;20533;-71
2023/03/03 01:29:55;;;;;;;76.38;29.17;;;;;;;;;;5004631;28;20025;-72
2023/03/03 01:32:20;;;;;;;72.57;30.02;;;;;;;;;;5009913;28;20422;-71
2023/03/03 01:34:45;;;;;;;83.63;29.67;;;;;;;;;;5007687;28;20026;-71
2023/03/03 01:37:11;;;;;;;74.78;30.73;;;;;;;;;;5005435;28;20038;-71
2023/03/03 01:39:36;;;;;;;81.72;29.55;;;;;;;;;;5005604;28;20670;-71
2023/03/03 01:42:02;;;;;;;74.80;29.58;;;;;;;;;;5008783;28;20460;-71
2023/03/03 01:44:27;;;;;;;73.68;29.60;;;;;;;;;;5005886;28;20691;-71
2023/03/03 01:47:07;;;;;;;74.57;30.08;;;;;;;;;;5006609;28;20025;-71
2023/03/03 01:49:42;;;;;;;76.97;30.48;;;;;;;;;;5003339;28;20053;-71
2023/03/03 01:52:18;;;;;;;79.60;29.30;;;;;;;;;;5007599;28;20014;-71
2023/03/03 01:54:46;;;;;;;79.15;30.80;;;;;;;;;;5006955;28;20129;-71
2023/03/03 01:57:17;;;;;;;77.82;29.52;;;;;;;;;;5001046;28;20022;-71
2023/03/03 01:59:44;;;;;;;74.10;29.33;;;;;;;;;;5007072;28;20030;-71
2023/03/03 02:02:10;;;;;;;80.63;30.00;;;;;;;;;;5008111;28;20518;-71
2023/03/03 02:04:35;;;;;;;76.85;30.35;;;;;;;;;;5005805;28;20033;-71
2023/03/03 02:07:05;;;;;;;83.43;32.47;;;;;;;;;;5004698;28;20064;-71
2023/03/03 02:09:30;;;;;;;;;;;;;;;;;;5008839;28;20037;-71
2023/03/03 02:11:59;;;;;;;79.20;28.92;;;;;;;;;;5006852;28;19918;-71
2023/03/03 02:14:24;;;;;;;77.10;29.40;;;;;;;;;;5008222;28;20398;-71
2023/03/03 02:16:49;;;;;;;81.28;30.70;;;;;;;;;;5008868;28;20114;-71
2023/03/03 02:19:20;;;;;;;83.18;29.20;;;;;;;;;;5008458;28;20037;-71
2023/03/03 02:21:46;;;;;;;87.60;34.05;;;;;;;;;;5006990;28;20033;-71
2023/03/03 02:24:25;;;;;;;89.20;31.00;;;;;;;;;;5001883;28;20093;-71
2023/03/03 02:26:51;;;;;;;82.05;31.25;;;;;;;;;;5007187;28;20022;-71
2023/03/03 02:29:16;;;;;;;86.63;32.70;;;;;;;;;;5002260;28;20084;-71
2023/03/03 02:31:41;;;;;;;86.82;30.73;;;;;;;;;;5004048;28;20022;-71
2023/03/03 02:34:07;;;;;;;84.65;30.73;;;;;;;;;;5007154;28;20018;-71
2023/03/03 02:36:37;;;;;;;87.70;32.13;;;;;;;;;;5004749;28;20026;-71
2023/03/03 02:39:05;;;;;;;80.03;28.90;;;;;;;;;;5005845;28;20156;-71
2023/03/03 02:41:33;;;;;;;79.18;29.80;;;;;;;;;;5008143;28;20037;-71
2023/03/03 02:44:00;;;;;;;88.60;31.85;;;;;;;;;;5002864;28;20033;-71
2023/03/03 02:46:25;;;;;;;79.85;29.08;;;;;;;;;;5007740;28;20018;-71
2023/03/03 02:48:51;;;;;;;88.00;32.22;;;;;;;;;;5002845;28;20164;-71
2023/03/03 02:51:16;;;;;;;79.05;30.17;;;;;;;;;;5005672;28;20630;-71
2023/03/03 02:53:41;;;;;;;83.05;31.40;;;;;;;;;;5005299;28;20033;-71
2023/03/03 02:56:08;;;;;;;95.10;34.75;;;;;;;;;;5009932;28;20491;-71
2023/03/03 02:58:33;;;;;;;90.82;32.20;;;;;;;;;;5006102;28;20052;-71
2023/03/03 03:00:58;;;;;;;84.68;30.00;;;;;;;;;;5009061;28;20109;-71
2023/03/03 03:03:23;;;;;;;76.95;30.33;;;;;;;;;;5005662;28;20034;-71
2023/03/03 03:05:49;;;;;;;80.55;28.77;;;;;;;;;;5012147;28;20829;-71
2023/03/03 03:08:14;;;;;;;88.57;30.92;;;;;;;;;;5007308;28;20030;-71
2023/03/03 03:10:39;;;;;;;86.22;30.00;;;;;;;;;;5006833;28;20184;-71
2023/03/03 03:13:04;;;;;;;93.30;30.45;;;;;;;;;;5010583;28;20026;-71
2023/03/03 03:15:29;;;;;;;81.90;29.38;;;;;;;;;;5009237;28;20036;-71
2023/03/03 03:17:55;;;;;;;83.90;28.80;;;;;;;;;;5008302;28;20033;-71
2023/03/03 03:20:20;;;;;;;90.47;29.67;;;;;;;;;;5008017;28;20530;-71
2023/03/03 03:22:45;;;;;;;82.32;30.52;;;;;;;;;;5004583;28;20391;-71
2023/03/03 03:25:11;;;;;;;79.35;28.08;;;;;;;;;;5012045;28;20018;-71
2023/03/03 03:27:36;;;;;;;83.45;30.58;;;;;;;;;;5009104;28;20030;-71
2023/03/03 03:30:01;;;;;;;80.73;27.90;;;;;;;;;;5003839;28;20021;-71
2023/03/03 03:32:26;;;;;;;89.38;28.67;;;;;;;;;;5006518;28;20300;-71
2023/03/03 03:34:52;;;;;;;79.22;30.13;;;;;;;;;;5008405;28;20025;-71
2023/03/03 03:37:17;;;;;;;75.50;26.38;;;;;;;;;;5011616;28;20050;-71
2023/03/03 03:39:42;;;;;;;76.93;28.48;;;;;;;;;;5003556;28;20025;-71
2023/03/03 03:42:07;;;;;;;79.57;29.92;;;;;;;;;;5010061;28;20022;-71
2023/03/03 03:44:33;;;;;;;78.03;28.17;;;;;;;;;;5011348;28;20025;-71
2023/03/03 03:46:58;;;;;;;80.88;28.60;;;;;;;;;;5009201;28;20026;-71
2023/03/03 03:49:24;;;;;;;81.85;30.58;;;;;;;;;;5012165;28;20105;-71
2023/03/03 03:51:49;;;;;;;75.50;26.90;;;;;;;;;;5009907;28;20025;-71
2023/03/03 03:54:14;;;;;;;80.60;28.23;;;;;;;;;;5004999;28;20018;-71
2023/03/03 03:56:39;;;;;;;75.13;27.13;;;;;;;;;;5010958;28;20546;-71
2023/03/03 03:59:05;;;;;;;77.82;27.20;;;;;;;;;;5005234;28;20265;-71
2023/03/03 04:01:30;;;;;;;76.65;28.05;;;;;;;;;;5010003;28;20037;-71
2023/03/03 04:03:56;;;;;;;78.93;28.05;;;;;;;;;;5010558;28;20034;-71
2023/03/03 04:06:21;;;;;;;70.47;25.65;;;;;;;;;;5004942;28;20053;-71
2023/03/03 04:08:46;;;;;;;76.97;26.92;;;;;;;;;;5008988;28;20037;-71
2023/03/03 04:11:11;;;;;;;75.15;28.70;;;;;;;;;;5003700;28;20026;-71
2023/03/03 04:13:36;;;;;;;71.28;26.95;;;;;;;;;;5011016;28;20096;-71
2023/03/03 04:16:02;;;;;;;77.85;26.30;;;;;;;;;;5009941;28;20105;-71
2023/03/03 04:18:27;;;;;;;79.72;28.00;;;;;;;;;;5008516;28;20033;-71
2023/03/03 04:20:53;;;;;;;80.70;27.15;;;;;;;;;;5008167;28;20018;-71
2023/03/03 04:23:18;;;;;;;69.20;24.92;;;;;;;;;;5011014;28;20018;-71
2023/03/03 04:25:45;;;;;;;75.85;25.20;;;;;;;;;;5010369;28;20382;-71
2023/03/03 04:28:10;;;;;;;75.60;27.00;;;;;;;;;;5025726;28;20826;-71
2023/03/03 04:30:35;;;;;;;70.80;26.88;;;;;;;;;;5008463;28;20117;-71
2023/03/03 04:33:00;;;;;;;78.53;25.90;;;;;;;;;;5010528;28;20022;-71
2023/03/03 04:35:25;;;;;;;81.32;26.77;;;;;;;;;;5009528;28;20534;-71
2023/03/03 04:37:51;;;;;;;71.28;26.25;;;;;;;;;;5006833;28;20101;-71
2023/03/03 04:40:17;;;;;;;78.47;28.63;;;;;;;;;;5006333;28;20033;-71
2023/03/03 04:42:42;;;;;;;83.85;26.52;;;;;;;;;;5008859;28;21235;-71
2023/03/03 04:45:07;;;;;;;70.05;24.65;;;;;;;;;;5010212;28;20037;-71
2023/03/03 04:47:33;;;;;;;65.60;23.73;;;;;;;;;;5010241;28;20057;-71
2023/03/03 04:49:58;;;;;;;68.95;25.38;;;;;;;;;;5008510;28;20549;-71
2023/03/03 04:52:23;;;;;;;71.32;24.23;;;;;;;;;;5008332;28;20531;-71
2023/03/03 04:54:48;;;;;;;72.32;26.48;;;;;;;;;;5007363;28;20796;-71
2023/03/03 04:57:13;;;;;;;68.45;24.98;;;;;;;;;;5006976;28;20075;-70
2023/03/03 04:59:38;;;;;;;69.88;24.35;;;;;;;;;;5009770;28;20021;-70
2023/03/03 05:02:04;;;;;;;66.45;24.65;;;;;;;;;;5005842;28;20108;-70
2023/03/03 05:04:29;;;;;;;79.22;28.15;;;;;;;;;;5006048;28;20018;-71
2023/03/03 05:06:56;;;;;;;71.82;25.15;;;;;;;;;;5002766;28;20463;-71
2023/03/03 05:09:21;;;;;;;65.38;23.33;;;;;;;;;;5008319;28;20025;-71
2023/03/03 05:11:46;;;;;;;66.72;25.20;;;;;;;;;;5007069;28;20018;-71
2023/03/03 05:14:11;;;;;;;74.30;25.98;;;;;;;;;;5007242;28;20045;-70
2023/03/03 05:16:37;;;;;;;69.05;26.20;;;;;;;;;;5007969;28;20037;-70
2023/03/03 05:19:02;;;;;;;73.45;27.80;;;;;;;;;;5008071;28;20026;-70
2023/03/03 05:21:27;;;;;;;63.78;23.70;;;;;;;;;;5008951;28;20129;-70
2023/03/03 05:23:52;;;;;;;59.75;22.00;;;;;;;;;;5008993;28;20009;-71
2023/03/03 05:26:17;;;;;;;70.60;26.27;;;;;;;;;;5006262;28;20025;-71
2023/03/03 05:28:42;;;;;;;63.20;22.50;;;;;;;;;;5008873;28;20455;-70
2023/03/03 05:31:08;;;;;;;66.57;26.17;;;;;;;;;;5005768;28;20049;-70
2023/03/03 05:33:33;;;;;;;70.93;25.70;;;;;;;;;;5009404;28;20022;-71
2023/03/03 05:35:58;;;;;;;56.60;21.85;;;;;;;;;;4998365;28;20029;-71
2023/03/03 05:38:23;;;;;;;66.68;23.30;;;;;;;;;;5010674;28;20398;-71
2023/03/03 05:40:49;;;;;;;64.32;23.52;;;;;;;;;;5007684;28;20352;-71
2023/03/03 05:43:14;;;;;;;70.43;23.85;;;;;;;;;;5003027;28;20060;-70
2023/03/03 05:45:39;;;;;;;58.00;21.03;;;;;;;;;;5003655;28;20033;-69
2023/03/03 05:48:05;;;;;;;70.15;25.70;;;;;;;;;;5005769;28;20791;-70
2023/03/03 05:50:30;;;;;;;63.88;24.65;;;;;;;;;;5002187;28;20087;-70
2023/03/03 05:52:56;;;;;;;65.40;22.58;;;;;;;;;;5004268;28;20385;-69
2023/03/03 05:55:21;;;;;;;68.97;24.98;;;;;;;;;;4999908;28;20022;-70
2023/03/03 05:57:46;;;;;;;67.18;23.52;;;;;;;;;;5003051;28;20076;-69
2023/03/03 06:00:12;;;;;;;58.88;22.73;;;;;;;;;;5000758;28;20475;-69
2023/03/03 06:02:37;;;;;;;69.82;23.42;;;;;;;;;;4995847;28;20736;-70
2023/03/03 06:05:03;;;;;;;64.93;23.90;;;;;;;;;;4998084;28;20034;-69
2023/03/03 06:07:28;;;;;;;64.57;23.77;;;;;;;;;;5006417;28;20018;-69
2023/03/03 06:09:53;;;;;;;68.13;24.43;;;;;;;;;;5003482;28;20021;-70
2023/03/03 06:12:18;;;;;;;63.40;23.23;;;;;;;;;;4998741;28;20261;-69
2023/03/03 06:14:43;;;;;;;62.75;23.10;;;;;;;;;;4994240;28;20030;-70
2023/03/03 06:17:09;;;;;;;60.08;21.95;;;;;;;;;;5007184;28;20018;-69
2023/03/03 06:19:35;;;;;;;60.42;23.13;;;;;;;;;;5003542;28;20041;-69
2023/03/03 06:22:00;;;;;;;57.85;22.77;;;;;;;;;;5002816;28;20036;-69
2023/03/03 06:24:29;;;;;;;59.03;20.98;;;;;;;;;;5005041;28;20045;-69
2023/03/03 06:26:54;;;;;;;64.53;22.13;;;;;;;;;;5006075;28;20037;-71
2023/03/03 06:29:19;;;;;;;60.83;23.27;;;;;;;;;;5005357;28;20253;-67
2023/03/03 06:31:45;;;;;;;57.95;21.42;;;;;;;;;;5004079;28;20518;-68
2023/03/03 06:34:10;;;;;;;58.55;20.58;;;;;;;;;;5001277;28;20152;-68
2023/03/03 06:36:35;;;;;;;53.35;20.23;;;;;;;;;;5006453;28;20049;-68
2023/03/03 06:39:00;;;;;;;54.88;19.75;;;;;;;;;;5000874;28;20086;-68
2023/03/03 06:41:25;;;;;;;62.28;21.52;;;;;;;;;;5004817;28;20042;-68
2023/03/03 06:43:51;;;;;;;54.00;20.00;;;;;;;;;;5000576;28;20083;-68
2023/03/03 06:46:16;;;;;;;59.58;21.05;;;;;;;;;;5006636;28;20110;-68
2023/03/03 06:48:41;;;;;;;64.05;21.02;;;;;;;;;;5003525;28;20129;-69
2023/03/03 06:51:14;;;;;;;53.97;20.88;;;;;;;;;;5005615;28;20403;-68
2023/03/03 06:53:39;;;;;;;60.70;22.67;;;;;;;;;;4999452;28;20033;-68
2023/03/03 06:56:07;;;;;;;58.60;20.48;;;;;;;;;;5002091;28;20030;-68
2023/03/03 06:58:34;;;;;;;58.50;19.58;;;;;;;;;;4994855;28;20081;-68
2023/03/03 07:01:00;;;;;;;46.70;18.88;;;;;;;;;;4996410;28;20025;-68
2023/03/03 07:03:32;;;;;;;52.83;20.27;;;;;;;;;;4999255;28;20042;-69
2023/03/03 07:05:57;;;;;;;48.65;19.80;;;;;;;;;;5000781;28;20057;-69
2023/03/03 07:08:23;;;;;;;57.30;21.13;;;;;;;;;;5001843;28;20120;-69
2023/03/03 07:10:49;;;;;;;52.50;20.15;;;;;;;;;;5006239;28;20124;-68
2023/03/03 07:13:24;;;;;;;49.03;18.10;;;;;;;;;;4995645;28;20427;-68
2023/03/03 07:15:51;;;;;;;49.53;19.08;;;;;;;;;;5002008;28;20034;-68
2023/03/03 07:18:23;;;;;;;56.47;19.05;;;;;;;;;;5001117;28;20112;-68
2023/03/03 07:20:48;;;;;;;51.97;19.02;;;;;;;;;;5000345;28;20029;-69
2023/03/03 07:23:22;;;;;;;48.08;18.77;;;;;;;;;;5004167;28;20030;-68
2023/03/03 07:25:47;;;;;;;44.17;17.88;;;;;;;;;;5004871;28;20042;-68
2023/03/03 07:28:23;;;;;;;46.10;16.83;;;;;;;;;;5003406;28;20048;-69
2023/03/03 07:30:48;;;;;;;46.65;17.08;;;;;;;;;;5009077;28;20562;-68
2023/03/03 07:33:24;;;;;;;48.45;19.75;;;;;;;;;;5006273;28;20034;-69
2023/03/03 07:35:50;;;;;;;50.05;18.80;;;;;;;;;;5006620;28;20064;-69
2023/03/03 07:38:36;;;;;;;47.55;19.15;;;;;;;;;;5006493;28;20042;-68
2023/03/03 07:41:02;;;;;;;50.42;17.90;;;;;;;;;;5006911;28;20053;-68
2023/03/03 07:43:29;;;;;;;49.45;17.27;;;;;;;;;;5006075;28;20033;-68
2023/03/03 07:46:12;;;;;;;46.47;17.90;;;;;;;;;;5003481;28;20395;-68
2023/03/03 07:48:40;;;;;;;50.97;17.88;;;;;;;;;;5006617;28;20044;-69
2023/03/03 07:51:15;;;;;;;42.30;17.35;;;;;;;;;;4998390;28;20105;-71
2023/03/03 07:53:40;;;;;;;44.03;16.05;;;;;;;;;;5002068;28;20515;-69
2023/03/03 07:56:18;;;;;;;46.03;16.83;;;;;;;;;;5003849;28;20090;-69
2023/03/03 07:58:43;;;;;;;48.28;17.60;;;;;;;;;;5004695;28;20036;-69
2023/03/03 08:01:12;;;;;;;59.22;15.73;;;;;;;;;;5001790;28;20018;-69
2023/03/03 08:03:37;;;;;;;47.70;17.25;;;;;;;;;;5003039;28;20018;-69
2023/03/03 08:06:41;;;;;;;43.22;17.25;;;;;;;;;;5000894;28;20023;-69
2023/03/03 08:09:08;;;;;;;46.35;17.92;;;;;;;;;;4964901;28;20042;-69
2023/03/03 08:11:34;;;;;;;46.70;17.27;;;;;;;;;;4965763;28;20058;-69
2023/03/03 08:14:00;;;;;;;46.13;18.20;;;;;;;;;;4987361;28;20038;-69
2023/03/03 08:16:36;;;;;;;44.40;16.95;;;;;;;;;;5002970;28;20093;-69
2023/03/03 08:19:03;;;;;;;43.08;16.38;;;;;;;;;;4969249;28;1113363;-69
2023/03/03 08:21:30;;;;;;;44.95;17.70;;;;;;;;;;5005548;28;20754;-69
2023/03/03 08:23:55;;;;;;;48.97;15.02;;;;;;;;;;5008951;28;20022;-68
2023/03/03 08:26:21;;;;;;;61.15;18.27;;;;;;;;;;5006820;28;20033;-69
2023/03/03 08:28:47;;;;;;;43.40;17.67;;;;;;;;;;5009475;28;20668;-69
2023/03/03 08:31:12;;;;;;;40.40;15.27;;;;;;;;;;5004958;28;20026;-70
2023/03/03 08:33:38;;;;;;;40.05;16.65;;;;;;;;;;5006250;28;20061;-69
2023/03/03 08:36:03;;;;;;;42.03;15.48;;;;;;;;;;5005351;28;20025;-69
2023/03/03 08:38:29;;;;;;;45.03;16.67;;;;;;;;;;5005407;28;20017;-68
2023/03/03 08:40:54;;;;;;;47.88;17.00;;;;;;;;;;5003690;28;20285;-69
2023/03/03 08:43:20;;;;;;;38.57;14.67;;;;;;;;;;5002516;28;20049;-69
2023/03/03 08:45:46;;;;;;;40.80;15.88;;;;;;;;;;5004763;28;20629;-69
2023/03/03 08:48:11;;;;;;;40.38;16.42;;;;;;;;;;5005268;28;20029;-69
2023/03/03 08:50:37;;;;;;;43.40;16.25;;;;;;;;;;5006151;28;20018;-69
2023/03/03 08:53:02;;;;;;;46.85;16.13;;;;;;;;;;5002535;28;20010;-69
2023/03/03 08:55:27;;;;;;;44.60;17.38;;;;;;;;;;5007432;28;20017;-69
2023/03/03 08:57:53;;;;;;;42.40;15.93;;;;;;;;;;5003821;28;20014;-69
2023/03/03 09:00:18;;;;;;;38.85;16.48;;;;;;;;;;5007335;28;20037;-69
2023/03/03 09:02:44;;;;;;;46.65;16.45;;;;;;;;;;5005616;28;20037;-69
2023/03/03 09:05:09;;;;;;;44.57;15.70;;;;;;;;;;5006726;28;20456;-69
2023/03/03 09:07:35;;;;;;;38.58;16.77;;;;;;;;;;5004771;28;20275;-69
2023/03/03 09:10:00;;;;;;;45.10;18.10;;;;;;;;;;5001619;28;20030;-69
2023/03/03 09:12:28;;;;;;;42.63;16.80;;;;;;;;;;5005807;28;20045;-69
2023/03/03 09:14:55;;;;;;;45.88;17.90;;;;;;;;;;5004123;28;20021;-69
2023/03/03 09:17:24;;;;;;;43.90;16.85;;;;;;;;;;5006606;28;20056;-69
2023/03/03 09:19:49;;;;;;;43.20;16.02;;;;;;;;;;5005102;28;20022;-69
2023/03/03 09:22:18;;;;;;;42.25;15.90;;;;;;;;;;5003006;28;20153;-69
2023/03/03 09:24:44;;;;;;;47.95;16.77;;;;;;;;;;5003348;28;20024;-69
2023/03/03 09:27:15;;;;;;;42.13;16.05;;;;;;;;;;5004893;28;20022;-69
2023/03/03 09:29:40;;;;;;;41.50;16.75;;;;;;;;;;5009272;28;20026;-69
2023/03/03 09:32:26;;;;;;;41.78;16.88;;;;;;;;;;5004187;28;20066;-69
2023/03/03 09:34:51;;;;;;;42.88;15.45;;;;;;;;;;5000664;28;20176;-69
2023/03/03 09:37:20;;;;;;;44.20;17.10;;;;;;;;;;5004511;28;20090;-69
2023/03/03 09:39:47;;;;;;;40.67;15.20;;;;;;;;;;5002500;28;20496;-69
2023/03/03 09:42:31;;;;;;;45.03;18.27;;;;;;;;;;5004852;28;20028;-69
2023/03/03 09:45:05;;;;;;;40.17;15.75;;;;;;;;;;4998605;28;20023;-69
2023/03/03 09:47:33;;;;;;;50.10;17.85;;;;;;;;;;5003123;28;20475;-69
2023/03/03 09:50:11;;;;;;;40.63;17.75;;;;;;;;;;5001339;28;20116;-69
2023/03/03 09:52:51;;;;;;;44.80;17.35;;;;;;;;;;5001660;28;20105;-69
2023/03/03 09:55:19;;;;;;;52.42;18.75;;;;;;;;;;4997948;28;20060;-69
2023/03/03 09:57:56;;;;;;;45.33;18.40;;;;;;;;;;5002380;28;20030;-69
2023/03/03 10:00:30;;;;;;;46.08;17.58;;;;;;;;;;5003664;28;20025;-69
2023/03/03 10:03:14;;;;;;;43.40;17.33;;;;;;;;;;5002847;28;20524;-70
2023/03/03 10:05:50;;;;;;;50.25;16.58;;;;;;;;;;5002149;28;20105;-69
2023/03/03 10:08:28;;;;;;;44.95;17.13;;;;;;;;;;4999939;28;20026;-70
2023/03/03 10:11:02;;;;;;;47.35;18.35;;;;;;;;;;5003501;28;20049;-70
2023/03/03 10:13:36;;;;;;;55.03;18.65;;;;;;;;;;5003148;28;20497;-70
2023/03/03 10:16:19;;;;;;;55.00;18.77;;;;;;;;;;4996922;28;20022;-70
2023/03/03 10:18:51;;;;;;;51.65;20.83;;;;;;;;;;4998896;28;20062;-69
2023/03/03 10:21:21;;;;;;;55.10;20.85;;;;;;;;;;5004797;28;20132;-70
2023/03/03 10:23:59;;;;;;;50.10;18.52;;;;;;;;;;4999727;28;20156;-69
2023/03/03 10:26:47;;;;;;;53.42;20.38;;;;;;;;;;5003785;28;20068;-69
2023/03/03 10:29:28;;;;;;;52.75;19.10;;;;;;;;;;4999949;28;20536;-69
2023/03/03 10:32:19;;;;;;;42.03;17.48;;;;;;;;;;5005505;28;20060;-69
2023/03/03 10:34:50;;;;;;;54.55;20.75;;;;;;;;;;5005410;28;20030;-69
2023/03/03 10:37:23;;;;;;;53.13;19.75;;;;;;;;;;5003083;28;20101;-69
2023/03/03 10:39:51;;;;;;;53.72;20.77;;;;;;;;;;4999865;28;20030;-69
2023/03/03 10:42:36;;;;;;;49.60;19.27;;;;;;;;;;4999839;28;20057;-69
2023/03/03 10:45:18;;;;;;;47.03;18.27;;;;;;;;;;5010897;28;20011;-74
2023/03/03 10:47:52;;;;;;;54.35;19.85;;;;;;;;;;5003147;28;20045;-74
2023/03/03 10:50:35;;;;;;;63.60;20.17;;;;;;;;;;4998397;28;20022;-74
2023/03/03 10:53:16;;;;;;;50.33;20.65;;;;;;;;;;5002290;28;20029;-74
2023/03/03 10:55:57;;;;;;;52.97;20.23;;;;;;;;;;4998524;28;20368;-72
2023/03/03 10:58:23;;;;;;;53.17;20.33;;;;;;;;;;5003340;28;20407;-72
2023/03/03 11:00:51;;;;;;;50.13;19.70;;;;;;;;;;4999802;28;20030;-74
2023/03/03 11:03:35;;;;;;;66.07;18.75;;;;;;;;;;5007585;28;20422;-71
2023/03/03 11:06:03;;;;;;;50.13;20.42;;;;;;;;;;5003790;28;20097;-74
2023/03/03 11:08:33;;;;;;;53.08;20.80;;;;;;;;;;5004022;28;20101;-74
2023/03/03 11:10:58;;;;;;;54.40;21.35;;;;;;;;;;5006176;28;20382;-77
2023/03/03 11:13:29;;;;;;;51.45;19.42;;;;;;;;;;5003658;28;20022;-76
2023/03/03 11:16:10;;;;;;;55.65;20.80;;;;;;;;;;5004693;28;20343;-76
2023/03/03 11:18:41;;;;;;;49.63;20.13;;;;;;;;;;5001463;28;20033;-76
2023/03/03 11:21:33;;;;;;;50.72;18.65;;;;;;;;;;5004663;28;20019;-77
2023/03/03 11:24:10;;;;;;;51.65;19.83;;;;;;;;;;5009693;28;20034;-78
2023/03/03 11:26:38;;;;;;;49.00;21.08;;;;;;;;;;5003298;28;20023;-75
2023/03/03 11:29:03;;;;;;;49.47;19.40;;;;;;;;;;5001309;28;20786;-75
2023/03/03 11:31:31;;;;;;;55.77;18.80;;;;;;;;;;5007232;28;20085;-76
2023/03/03 11:34:00;;;;;;;46.78;18.75;;;;;;;;;;5007987;28;20687;-78
2023/03/03 11:36:37;;;;;;;51.05;21.35;;;;;;;;;;5010393;28;20575;-80
2023/03/03 11:39:04;;;;;;;44.42;16.55;;;;;;;;;;5005057;28;20059;-76
2023/03/03 11:41:31;;;;;;;43.92;18.00;;;;;;;;;;5006556;28;20018;-76
2023/03/03 11:44:04;;;;;;;42.75;18.42;;;;;;;;;;5004672;28;20104;-74
2023/03/03 11:46:31;;;;;;;42.15;18.35;;;;;;;;;;5005566;28;20026;-74
2023/03/03 11:48:56;;;;;;;46.95;18.15;;;;;;;;;;5007097;28;20026;-75
2023/03/03 11:51:24;;;;;;;46.15;18.52;;;;;;;;;;5004384;28;20081;-73
2023/03/03 11:53:50;;;;;;;45.65;17.60;;;;;;;;;;5007005;28;20467;-70
2023/03/03 11:56:20;;;;;;;44.10;18.48;;;;;;;;;;4999588;28;20040;-70
2023/03/03 11:58:50;;;;;;;46.42;18.92;;;;;;;;;;5008362;28;20033;-70
2023/03/03 12:01:25;;;;;;;41.65;17.63;;;;;;;;;;5002945;28;20391;-70
2023/03/03 12:03:57;;;;;;;52.63;19.38;;;;;;;;;;5009361;28;20029;-70
2023/03/03 12:06:28;;;;;;;48.83;18.67;;;;;;;;;;4999444;28;20030;-70
2023/03/03 12:08:56;;;;;;;46.90;19.42;;;;;;;;;;5007813;28;20101;-70
2023/03/03 12:11:40;;;;;;;45.00;17.27;;;;;;;;;;5001653;28;20018;-70
2023/03/03 12:14:12;;;;;;;47.08;19.27;;;;;;;;;;5003501;28;20097;-70
2023/03/03 12:16:48;;;;;;;44.28;16.67;;;;;;;;;;5010506;28;20025;-70
2023/03/03 12:19:13;;;;;;;48.42;18.63;;;;;;;;;;5003034;28;20518;-70
2023/03/03 12:21:55;;;;;;;44.65;18.50;;;;;;;;;;5006555;28;20022;-70
2023/03/03 12:24:20;;;;;;;46.58;19.42;;;;;;;;;;5006063;28;20843;-70
2023/03/03 12:27:03;;;;;;;48.15;18.90;;;;;;;;;;5000275;28;20034;-70
2023/03/03 12:29:40;;;;;;;39.28;17.65;;;;;;;;;;5024025;28;20277;-69
2023/03/03 12:32:40;;;;;;;45.35;20.52;;;;;;;;;;4998387;28;20058;-70
2023/03/03 12:35:24;;;;;;;51.83;21.45;;;;;;;;;;4985835;28;20030;-69
2023/03/03 12:37:53;;;;;;;47.97;19.83;;;;;;;;;;4999805;28;20042;-69
2023/03/03 12:40:20;;;;;;;51.33;21.27;;;;;;;;;;5004973;28;20026;-70
2023/03/03 12:42:57;;;;;;;52.67;21.25;;;;;;;;;;5002543;28;20136;-70
2023/03/03 12:45:36;;;;;;;48.65;19.67;;;;;;;;;;5004211;28;20023;-70
2023/03/03 12:48:07;;;;;;;49.35;21.13;;;;;;;;;;5000926;28;20145;-69
2023/03/03 12:50:47;;;;;;;52.20;19.83;;;;;;;;;;5003459;28;20017;-70
2023/03/03 12:53:18;;;;;;;48.53;19.52;;;;;;;;;;5003991;28;20506;-69
2023/03/03 12:55:50;;;;;;;49.17;19.80;;;;;;;;;;4999325;28;20084;-70
2023/03/03 12:58:19;;;;;;;47.00;19.00;;;;;;;;;;5002318;28;20431;-70
2023/03/03 13:00:58;;;;;;;46.88;19.67;;;;;;;;;;5003483;28;20033;-70
2023/03/03 13:03:44;;;;;;;43.15;19.02;;;;;;;;;;5001382;28;20034;-70
2023/03/03 13:06:18;;;;;;;47.63;19.38;;;;;;;;;;5002416;28;20034;-70
2023/03/03 13:09:02;;;;;;;46.60;20.20;;;;;;;;;;5004731;28;20029;-69
2023/03/03 13:11:35;;;;;;;44.17;17.55;;;;;;;;;;5000704;28;20094;-70
2023/03/03 13:14:09;;;;;;;49.85;19.52;;;;;;;;;;5003214;28;20027;-70
2023/03/03 13:16:38;;;;;;;57.25;19.20;;;;;;;;;;5003443;28;20019;-70
2023/03/03 13:19:06;;;;;;;62.65;23.15;;;;;;;;;;4999626;28;20069;-69
2023/03/03 13:21:46;;;;;;;53.85;22.58;;;;;;;;;;5005489;28;20071;-70
2023/03/03 13:24:22;;;;;;;56.03;21.73;;;;;;;;;;5004603;28;20026;-70
2023/03/03 13:26:50;;;;;;;56.60;22.85;;;;;;;;;;5005731;28;20093;-71
2023/03/03 13:29:21;;;;;;;62.45;23.00;;;;;;;;;;5004797;28;20442;-71
2023/03/03 13:31:48;;;;;;;53.78;22.88;;;;;;;;;;5003758;28;20121;-71
2023/03/03 13:34:20;;;;;;;62.53;24.15;;;;;;;;;;5003695;28;20026;-71
2023/03/03 13:37:01;;;;;;;60.65;24.55;;;;;;;;;;5007193;28;20025;-71
2023/03/03 13:39:32;;;;;;;69.97;25.60;;;;;;;;;;5005692;28;20959;-71
2023/03/03 13:42:02;;;;;;;66.38;26.25;;;;;;;;;;5004339;28;20032;-71
2023/03/03 13:44:47;;;;;;;53.20;22.42;;;;;;;;;;5007073;28;20037;-71
2023/03/03 13:47:27;;;;;;;62.00;24.58;;;;;;;;;;5005505;28;20033;-70
2023/03/03 13:49:58;;;;;;;64.90;26.38;;;;;;;;;;5001078;28;20105;-71
2023/03/03 13:52:28;;;;;;;63.67;24.45;;;;;;;;;;5005414;28;20042;-70
2023/03/03 13:55:07;;;;;;;60.88;23.45;;;;;;;;;;5003387;28;20014;-71
2023/03/03 13:57:44;;;;;;;64.20;23.40;;;;;;;;;;5002935;28;20021;-71
2023/03/03 14:00:12;;;;;;;56.00;21.70;;;;;;;;;;5005231;28;20025;-71
2023/03/03 14:02:54;;;;;;;66.07;23.45;;;;;;;;;;5007045;28;20018;-70
2023/03/03 14:05:24;;;;;;;56.80;22.52;;;;;;;;;;5004261;28;20026;-71
2023/03/03 14:07:49;;;;;;;;;;;;;;;;;;5006107;28;20022;-71
2023/03/03 14:10:18;;;;;;;60.53;23.80;;;;;;;;;;5000645;28;19909;-71
2023/03/03 14:13:15;;;;;;;72.35;25.75;;;;;;;;;;5001152;28;20281;-70
2023/03/03 14:15:58;;;;;;;67.00;25.15;;;;;;;;;;4980951;28;20449;-71
2023/03/03 14:18:46;;;;;;;68.60;28.52;;;;;;;;;;5003943;28;20180;-71
2023/03/03 14:21:17;;;;;;;66.70;26.88;;;;;;;;;;4989414;28;20081;-71
2023/03/03 14:23:42;;;;;;;68.03;23.55;;;;;;;;;;5002680;28;20014;-71
2023/03/03 14:26:09;;;;;;;61.75;22.85;;;;;;;;;;5003438;28;20495;-71
2023/03/03 14:28:39;;;;;;;65.63;25.50;;;;;;;;;;5000748;28;20289;-71
2023/03/03 14:31:20;;;;;;;69.65;25.25;;;;;;;;;;5003447;28;20432;-72